28 de septiembre de 2022

Hora Código Tiempo Temp. Visibilidad Cielo nuboso Viento METAR/SPECI
02:00
V
9 °C 10 km+ - 240° 240° 5 kt METAR LFQQ 280000Z AUTO 24005KT 9999 FEW029 09/07 Q0997 NOSIG
01:30
M
9 °C 10 km+ 2.800 ft 260° 260° 6 kt METAR LFQQ 272330Z AUTO 26006KT 9999 BKN028 BKN034 BKN040 09/08 Q0998 NOSIG
01:00
M
9 °C 10 km+ 2.800 ft Var Var 2 kt METAR LFQQ 272300Z AUTO VRB02KT 9999 BKN028 BKN033 BKN039 09/08 Q0998 NOSIG
00:30
V
9 °C 10 km+ - 250° 250° 5 kt METAR LFQQ 272230Z AUTO 25005KT 9999 FEW033/// SCT086/// //////CB 09/07 Q0998 BECMG SCT040
00:00
V
10 °C 10 km+ - 250° 250° 5 kt METAR LFQQ 272200Z AUTO 25005KT 230V290 CAVOK 10/08 Q0998 NOSIG

27 de septiembre de 2022

Hora Código Tiempo Temp. Visibilidad Cielo nuboso Viento METAR/SPECI
23:30
V
10 °C 10 km+ 9.600 ft 230° 230° 8 kt METAR LFQQ 272130Z AUTO 23008KT 9999 FEW028 BKN096 10/08 Q0998 NOSIG
23:00
V
10 °C 10 km+ - 230° 230° 6 kt METAR LFQQ 272100Z AUTO 23006KT CAVOK 10/08 Q0998 NOSIG
22:30
V
10 °C 10 km+ 10.000 ft 230° 230° 6 kt METAR LFQQ 272030Z AUTO 23006KT 9999 FEW044 BKN100 10/08 Q0998 NOSIG
22:00
V
11 °C 10 km+ - 220° 220° 7 kt METAR LFQQ 272000Z AUTO 22007KT CAVOK 11/08 Q0998 NOSIG
21:30
V
11 °C 10 km+ - 240° 240° 8 kt METAR LFQQ 271930Z AUTO 24008KT CAVOK 11/09 Q0998 NOSIG
21:00
V
11 °C 10 km+ - 250° 250° 7 kt METAR LFQQ 271900Z AUTO 25007KT CAVOK 11/09 Q0998 NOSIG
20:30
V
11 °C 10 km+ - 230° 230° 5 kt METAR LFQQ 271830Z AUTO 23005KT CAVOK 11/08 Q0998 NOSIG
20:00
V
11 °C 10 km+ 9.800 ft 240° 240° 5 kt METAR LFQQ 271800Z AUTO 24005KT 9999 FEW046 SCT076 OVC098 11/09 Q0998 NOSIG
19:30
V
11 °C 10 km+ - 260° 260° 5 kt METAR LFQQ 271730Z AUTO 26005KT CAVOK 11/09 Q0998 TEMPO 2000 SHRA SCT013 BKN020TCU BKN030
19:00
V
12 °C 10 km+ 4.700 ft 250° 250° 7 kt METAR LFQQ 271700Z AUTO 25007KT 9999 FEW039/// BKN047/// OVC062/// ///CB 12/09 Q0999 TEMPO 28015G25KT 2000 SHRA
18:30
I
12 °C 1,5 km 4.300 ft 280° 280° 17 kt METAR LFQQ 271630Z AUTO 28017KT 4500 1500 RA BR FEW029/// SCT035/// BKN043/// //////TCU 12/09 Q0999 TEMPO 2000 SHRA SCT016 BKN025CB BKN035 BECMG 22005KT
18:00
V
15 °C 10 km+ 7.200 ft 250° 250° 10 kt METAR LFQQ 271600Z AUTO 25010KT 9999 FEW047/// BKN072/// ///TCU 15/07 Q0998 TEMPO 28015G25KT 2000 SHRA SCT016 BKN025CB BKN035
17:30
V
15 °C 10 km+ - 250° 250° 12 kt METAR LFQQ 271530Z AUTO 25012KT CAVOK 15/07 Q0999 TEMPO 28015G25KT 2000 SHRA SCT016 BKN025CB BKN035
17:00
V
16 °C 10 km+ 6.200 ft 240° 240° 14 kt METAR LFQQ 271500Z AUTO 24014KT 9999 SCT042 SCT049 BKN062 16/07 Q0999 TEMPO 28015G25KT 2000 SHRA SCT016 BKN025CB BKN035
16:30
V
16 °C 10 km+ 4.700 ft 260° 260° 16 kt METAR LFQQ 271430Z AUTO 26016KT 9999 SCT041 BKN047 16/06 Q0999 TEMPO 28015G25KT 2000 SHRA SCT016 BKN025CB BKN035
16:00
V
15 °C 10 km+ 3.900 ft 280° 280° 13 kt METAR LFQQ 271400Z AUTO 28013KT 9999 BKN039 BKN046 BKN054 15/07 Q1000 TEMPO 28015G25KT 2000 SHRA SCT016 BKN025CB BKN035
15:30
V
14 °C 10 km+ 5.400 ft 270° 270° 14 kt METAR LFQQ 271330Z AUTO 27014KT 9999 FEW035/// SCT042/// BKN054/// //////TCU 14/07 Q1000 TEMPO 28015G25KT 2000 SHRA SCT016 BKN025CB BKN035
15:00
V
14 °C 10 km+ 3.700 ft 270° 270° 12 kt METAR LFQQ 271300Z AUTO 27012KT 9999 BKN037/// BKN047/// OVC100/// ///TCU 14/07 Q1000 TEMPO 28015G25KT 2000 SHRA SCT016 BKN025CB BKN035
14:30
V
15 °C 10 km+ 3.800 ft 280° 280° 13 kt METAR LFQQ 271230Z AUTO 28013KT 9999 BKN038 BKN046 BKN076 15/07 Q1000 TEMPO 28015G25KT 2000 SHRA SCT016 BKN025CB BKN035
14:00
V
14 °C 10 km+ 4.200 ft 280° 280° 15 kt METAR LFQQ 271200Z AUTO 28015KT 250V310 9999 SCT036 BKN042 BKN080 14/06 Q1001 TEMPO 28015G25KT 2000 SHRA SCT016 BKN025CB BKN035
13:30
V
14 °C 10 km+ 10.000 ft 270° 270° 14 kt METAR LFQQ 271130Z AUTO 27014KT 9999 SCT039 SCT049 BKN100 14/06 Q1001 TEMPO 28015G25KT 2000 SHRA SCT016 BKN025CB BKN035
13:00
V
13 °C 10 km+ - 290° 290° 14 kt METAR LFQQ 271100Z AUTO 29014KT 9999 SCT036 SCT044 13/05 Q1001 TEMPO 28015G25KT 2000 SHRA SCT016 BKN025CB BKN035
12:30
V
13 °C 10 km+ 5.600 ft 280° 280° 14 kt METAR LFQQ 271030Z AUTO 28014KT 9999 FEW026 SCT042 BKN056 13/06 Q1001 TEMPO 28015G25KT 2000 SHRA SCT016 BKN025CB BKN035
12:00
M
12 °C 10 km+ 2.500 ft 280° 280° 10 kt METAR LFQQ 271000Z AUTO 28010KT 9999 BKN025 BKN030 BKN037 12/07 Q1001 TEMPO 28015G25KT 2000 SHRA SCT016 BKN025CB BKN035
11:30
V
12 °C 10 km+ 7.800 ft 270° 270° 14 kt METAR LFQQ 270930Z AUTO 27014KT 9999 SCT024/// BKN078/// ///TCU 12/07 Q1002 TEMPO 28015G25KT 2000 SHRA SCT016 BKN025CB BKN035
11:00
M
11 °C 10 km+ 2.300 ft 280° 280° 16 kt METAR LFQQ 270900Z AUTO 28016KT 9999 BKN023 BKN074 11/07 Q1002 TEMPO 28015G25KT 2000 SHRA SCT016 BKN025CB BKN035
10:30
V
12 °C 10 km+ - 280° 280° 15 kt METAR LFQQ 270830Z AUTO 28015KT 9999 FEW022 12/08 Q1002 TEMPO 28015G25KT 2000 SHRA SCT016 BKN025CB BKN035
10:00
V
11 °C 10 km+ - 270° 270° 15 kt METAR LFQQ 270800Z AUTO 27015KT CAVOK 11/08 Q1001 TEMPO 28015G25KT 2000 SHRA SCT016 BKN025CB BKN035
09:30
V
9 °C 10 km+ - 240° 240° 7 kt METAR LFQQ 270730Z AUTO 24007KT CAVOK 09/09 Q1001 TEMPO 28015G25KT 2000 SHRA SCT016 BKN025CB BKN035
09:00
V
8 °C 10 km+ 9.200 ft 240° 240° 5 kt METAR LFQQ 270700Z AUTO 24005KT 9999 FEW029/// BKN092/// ///TCU 08/07 Q1001 TEMPO 28015G25KT 2000 SHRA SCT016 BKN025CB BKN035
08:30
V
9 °C 10 km+ 4.700 ft 230° 230° 6 kt METAR LFQQ 270630Z AUTO 23006KT 9999 FEW016/// SCT030/// BKN047/// ///TCU 09/08 Q1001 TEMPO 28015G25KT 2000 SHRA SCT016 BKN025CB BKN035
08:00
M
9 °C 10 km+ 2.900 ft 250° 250° 7 kt METAR LFQQ 270600Z AUTO 25007KT 9999 SCT016/// BKN029/// BKN035/// ///TCU 09/08 Q1001 TEMPO 28015G25KT 2000 SHRA SCT016 BKN025CB BKN035
07:30
M
9 °C 10 km+ 1.900 ft 230° 230° 7 kt METAR LFQQ 270530Z AUTO 23007KT 9999 BKN019/// BKN026/// BKN042/// //////TCU 09/08 Q1001 BECMG BKN025
07:00
V
9 °C 10 km+ 6.000 ft 260° 260° 7 kt METAR LFQQ 270500Z AUTO 26007KT 9999 -RA FEW020/// BKN060/// OVC070/// ///TCU 09/08 Q1001 BECMG BKN025
06:30
M
8 °C 10 km+ 2.500 ft 230° 230° 4 kt METAR LFQQ 270430Z AUTO 23004KT 9999 FEW019/// BKN025/// BKN037/// //////TCU 08/08 Q1001 BECMG BKN025
06:00
I
8 °C 4,1 km 5.000 ft 240° 240° 10 kt METAR LFQQ 270400Z AUTO 24010KT 9999 4100 RA FEW032/// BKN050/// BKN060/// //////TCU 08/08 Q1001 BECMG NSW BKN025
05:30
V
8 °C 10 km+ 5.800 ft 270° 270° 6 kt METAR LFQQ 270330Z AUTO 27006KT 9999 FEW039/// SCT049/// BKN058/// //////TCU 08/07 Q1001 BECMG BKN025
05:00
V
9 °C 10 km+ 4.000 ft 300° 300° 9 kt METAR LFQQ 270300Z AUTO 30009KT 9999 -RA SCT029/// BKN040/// BKN062/// //////TCU 09/07 Q1001 TEMPO 30015G25KT 3000 SHRA BKN013 BKN020CB
04:30
V
9 °C 10 km+ 3.800 ft 300° 300° 9 kt METAR LFQQ 270230Z AUTO 30009KT 9999 SCT032/// BKN038/// BKN066/// //////CB 09/07 Q1001 TEMPO 30015G25KT 3000 SHRA BECMG BKN025
04:00
V
9 °C 10 km+ 3.100 ft 290° 290° 7 kt METAR LFQQ 270200Z AUTO 29007KT 9999 FEW017/// BKN031/// BKN044/// //////CB 09/08 Q1001 TEMPO 30015G25KT 3000 SHRA BKN013 BKN020CB
03:30
M
10 °C 10 km+ 2.500 ft 250° 250° 3 kt METAR LFQQ 270130Z AUTO 25003KT 9999 BKN025/// BKN033/// OVC039/// //////TCU 10/09 Q1001 TEMPO 30015G25KT 3000 SHRA BKN013 BKN020CB
03:00
V
10 °C 10 km+ 4.300 ft 300° 300° 5 kt METAR LFQQ 270100Z AUTO 30005KT 9999 FEW020/// SCT030/// BKN043/// ///TCU 10/08 Q1001 TEMPO 30015G25KT 3000 SHRA BKN013 BKN020CB
02:30
M
9 °C 7 km 3.600 ft 290° 290° 8 kt METAR LFQQ 270030Z AUTO 29008KT 250V330 7000 RA FEW019/// SCT028/// BKN036/// //////CB 09/08 Q1001 TEMPO 30015G25KT 3000 SHRA BKN013 BKN020CB
02:00
I
10 °C 4,6 km 4.500 ft 250° 250° 11 kt METAR LFQQ 270000Z AUTO 25011KT 9999 4600 -RA FEW025/// SCT035/// BKN045/// //////CB 10/08 Q1001 TEMPO 30015G25KT 3000 SHRA BKN013 BKN020CB
01:30
V
10 °C 10 km+ 3.700 ft 260° 260° 9 kt METAR LFQQ 262330Z AUTO 26009KT 9999 FEW031/// BKN037/// BKN048/// //////TCU 10/08 Q1001 TEMPO 30015G25KT 3000 SHRA BKN013 BKN020CB
01:00
V
10 °C 10 km+ 7.000 ft 260° 260° 10 kt METAR LFQQ 262300Z AUTO 26010KT 9999 FEW039/// SCT050/// BKN070/// ///TCU 10/08 Q1001 TEMPO 30015G25KT 3000 SHRA BKN013 BKN020CB
00:30
V
10 °C 10 km+ - 260° 260° 8 kt METAR LFQQ 262230Z AUTO 26008KT CAVOK 10/08 Q1001 TEMPO 30015G25KT 3000 SHRA BKN013 BKN020CB
00:00
V
10 °C 10 km+ 5.800 ft 290° 290° 8 kt METAR LFQQ 262200Z AUTO 29008KT 9999 FEW047 BKN058 BKN100 10/08 Q1001 TEMPO 30015G25KT 3000 SHRA BKN013 BKN020CB

26 de septiembre de 2022

Hora Código Tiempo Temp. Visibilidad Cielo nuboso Viento METAR/SPECI
23:30
V
10 °C 10 km+ 4.900 ft 290° 290° 12 kt METAR LFQQ 262130Z AUTO 29012KT 9999 FEW014/// SCT036/// OVC049/// ///TCU 10/09 Q1001 TEMPO 30015G25KT 3000 SHRA BKN013 BKN020CB
23:00
V
10 °C 10 km+ 4.400 ft 290° 290° 9 kt METAR LFQQ 262100Z AUTO 29009KT 9999 FEW018/// SCT032/// BKN044/// //////TCU 10/09 Q1001 TEMPO 30015G25KT 3000 SHRA BKN013 BKN020CB
22:30
V
10 °C 10 km+ 4.700 ft 270° 270° 11 kt METAR LFQQ 262030Z AUTO 27011KT 9999 RA FEW022/// BKN047/// OVC056/// //////TCU 10/10 Q1001 TEMPO 30015G25KT 3000 SHRA BKN013 BKN020CB
22:00
I
11 °C 3 km 3.400 ft 260° 260° 9 kt METAR LFQQ 262000Z AUTO 26009KT 9999 3000 +RA FEW025/// BKN034/// BKN040/// //////TCU 11/10 Q1001 TEMPO 30015G25KT 3000 SHRA BKN013 BKN020CB
21:30
M
11 °C 7 km 3.700 ft 280° 280° 9 kt METAR LFQQ 261930Z AUTO 28009KT 7000 RA FEW015/// SCT028/// BKN037/// //////TCU 11/10 Q1001 TEMPO 30015G25KT 3000 SHRA BKN013 BKN020CB
21:00
V
11 °C 10 km+ 5.600 ft 270° 270° 8 kt METAR LFQQ 261900Z AUTO 27008KT 9999 -RADZ FEW023/// BKN056/// OVC072/// //////CB 11/10 Q1000 TEMPO 30015G25KT 3000 SHRA BKN013 BKN020CB
20:30
V
11 °C 10 km+ 4.800 ft 270° 270° 8 kt METAR LFQQ 261830Z AUTO 27008KT 9999 FEW027/// BKN048/// OVC058/// //////TCU 11/10 Q1000 TEMPO 30015G25KT 3000 SHRA BKN013 BKN020CB
20:00
V
11 °C 9 km 4.200 ft 280° 280° 8 kt METAR LFQQ 261800Z AUTO 28008KT 9000 -RA FEW027/// SCT034/// BKN042/// //////TCU 11/10 Q1000 TEMPO 30015G25KT 3000 SHRA BKN013 BKN020CB
19:30
V
12 °C 10 km+ - 290° 290° 6 kt METAR LFQQ 261730Z AUTO 29006KT 9999 ///CB 12/09 Q0999 TEMPO 30015G25KT 3000 SHRA BKN013 BKN020CB
19:00
V
12 °C 10 km+ 5.800 ft 300° 300° 8 kt METAR LFQQ 261700Z AUTO 30008KT 9999 FEW039 BKN058 OVC086 12/09 Q0999 TEMPO 30015G25KT 3000 SHRA BKN013 BKN020CB
18:30
V
13 °C 10 km+ 9.800 ft 290° 290° 7 kt METAR LFQQ 261630Z AUTO 29007KT 260V330 9999 -RA FEW025 SCT036 BKN098 13/10 Q0999 TEMPO 30015G25KT 3000 SHRA BKN013 BKN020CB
18:00
V
13 °C 10 km+ 9.000 ft 300° 300° 8 kt METAR LFQQ 261600Z AUTO 30008KT 9999 FEW033/// SCT062/// BKN090/// ///CB 13/09 Q0999 TEMPO 30015G25KT 3000 SHRA BKN013 BKN020CB
17:30
V
13 °C 10 km+ 4.200 ft 320° 320° 11 kt METAR LFQQ 261530Z AUTO 32011KT 9999 -RA FEW022/// SCT032/// BKN042/// //////CB 13/10 Q0999 TEMPO 30015G25KT 3000 SHRA BKN013 BKN020CB
17:00
M
14 °C 10 km+ 2.300 ft 300° 300° 9 kt METAR LFQQ 261500Z AUTO 30009KT 9999 SCT014/// BKN023/// BKN068/// //////TCU 14/11 Q0999 TEMPO 30015G25KT 3000 SHRA BKN013 BKN020CB
16:30
M
14 °C 10 km+ 1.200 ft 250° 250° 7 kt METAR LFQQ 261430Z AUTO 25007KT 230V300 9999 -DZ BKN012/// BKN018/// OVC060/// //////TCU 14/13 Q0998 TEMPO 30015G25KT 3000 SHRA BKN013 BKN020CB
16:00
M
13 °C 10 km+ 1.400 ft 240° 240° 6 kt METAR LFQQ 261400Z AUTO 24006KT 9999 SCT007/// BKN014/// BKN025/// //////TCU 13/12 Q0999 TEMPO 30015G25KT 3000 SHRA BKN013 BKN020CB
15:30
I
13 °C 10 km+ 600 ft 240° 240° 6 kt METAR LFQQ 261330Z AUTO 24006KT 9999 BKN006 BKN023 BKN029 13/12 Q0999 TEMPO 30015G25KT 3000 SHRA BKN013 BKN020CB
15:00
I
12 °C 10 km+ 600 ft 260° 260° 8 kt METAR LFQQ 261300Z AUTO 26008KT 9999 -RA OVC006/// //////TCU 12/12 Q0998 BECMG 20015KT RA SCT008 OVC013
14:30
I
12 °C 3,6 km 700 ft 230° 230° 10 kt METAR LFQQ 261230Z AUTO 23010KT 3600 -RA BR OVC007/// ///TCU 12/12 Q0999 BECMG 9999 RA SCT008 OVC013
14:00
I
12 °C 3,5 km 900 ft 220° 220° 11 kt METAR LFQQ 261200Z AUTO 22011KT 9999 3500 -RA OVC009 12/11 Q0999 TEMPO 20017G30KT 3000 RA OVC005 SCT030CB
13:30
I
12 °C 10 km+ 900 ft 190° 190° 11 kt METAR LFQQ 261130Z AUTO 19011KT 9999 BKN009/// BKN014/// BKN020/// //////TCU 12/11 Q0999 TEMPO 20017G30KT 3000 RADZ OVC005 SCT030CB
13:00
M
12 °C 6 km 1.300 ft 210° 210° 10 kt METAR LFQQ 261100Z AUTO 21010KT 6000 RA BKN013/// BKN031/// BKN043/// ///CB 12/11 Q1000 TEMPO 20017G30KT 3000 RADZ OVC005 SCT030CB
12:30
I
12 °C 4 km 1.600 ft 220° 220° 10 kt METAR LFQQ 261030Z AUTO 22010KT 4000 RA BR BKN016/// BKN023/// OVC028/// ///CB 12/10 Q1001 TEMPO 20017G30KT OVC005 SCT030CB
12:00
M
13 °C 10 km+ 1.800 ft 190° 190° 17 kt METAR LFQQ 261000Z AUTO 19017KT 9999 BKN018/// OVC035/// //////TCU 13/10 Q1000 TEMPO 20017G30KT 3000 RADZ OVC005 SCT030CB
11:30
M
12 °C 10 km+ 1.800 ft 190° 190° 17 kt METAR LFQQ 260930Z AUTO 19017KT 9999 BKN018/// BKN028/// BKN039/// //////TCU 12/10 Q1000 TEMPO 20017G30KT 3000 RADZ OVC005 SCT030CB
11:00
M
12 °C 10 km+ 2.000 ft 200° 200° 16 kt METAR LFQQ 260900Z AUTO 20016KT 9999 BKN020 BKN034 OVC049 12/10 Q1001 TEMPO 20017G30KT 3000 RADZ OVC005 SCT030CB
10:30
M
12 °C 10 km+ 2.100 ft 200° 200° 18 kt METAR LFQQ 260830Z AUTO 20018KT 9999 -RADZ BKN021 BKN030 BKN072 12/10 Q1001 TEMPO 20017G30KT 3000 RADZ OVC005 SCT030CB
10:00
V
12 °C 10 km+ 4.200 ft 200° 200° 15 kt METAR LFQQ 260800Z AUTO 20015KT 9999 -DZ FEW023/// SCT030/// BKN042/// //////TCU 12/10 Q1002 TEMPO 20017G30KT 3000 RADZ OVC005 SCT030CB
09:30
V
13 °C 10 km+ 4.700 ft 200° 200° 16 kt METAR LFQQ 260730Z AUTO 20016KT 9999 BKN047 BKN054 BKN090 13/09 Q1002 TEMPO 20017G30KT 3000 RADZ OVC005 SCT030CB
09:00
V
12 °C 10 km+ 4.600 ft 200° 200° 12 kt METAR LFQQ 260700Z AUTO 20012KT 9999 BKN046 BKN054 OVC094 12/09 Q1003 BECMG RA OVC013
08:30
V
12 °C 10 km+ - 200° 200° 10 kt METAR LFQQ 260630Z AUTO 20010KT CAVOK 12/09 Q1004 BECMG RA OVC013
08:00
V
12 °C 10 km+ - 200° 200° 11 kt METAR LFQQ 260600Z AUTO 20011KT CAVOK 12/09 Q1004 BECMG RA OVC013
07:30
V
12 °C 10 km+ 5.600 ft 210° 210° 12 kt METAR LFQQ 260530Z AUTO 21012KT 9999 FEW027 SCT046 BKN056 12/09 Q1005 BECMG RA OVC013
07:00
V
12 °C 10 km+ 3.500 ft 200° 200° 12 kt METAR LFQQ 260500Z AUTO 20012KT 9999 SCT027 BKN035 BKN052 12/08 Q1005 BECMG OVC013
06:30
V
12 °C 10 km+ 3.000 ft 200° 200° 12 kt METAR LFQQ 260430Z AUTO 20012KT 9999 SCT024 BKN030 BKN037 12/08 Q1006 BECMG OVC013
06:00
V
11 °C 10 km+ 3.800 ft 200° 200° 12 kt METAR LFQQ 260400Z AUTO 20012KT 9999 FEW031 BKN038 BKN044 11/08 Q1007 NOSIG
05:30
V
11 °C 10 km+ 11.000 ft 190° 190° 10 kt METAR LFQQ 260330Z AUTO 19010KT 9999 FEW045 OVC110 11/08 Q1007 NOSIG
05:00
V
11 °C 10 km+ 4.400 ft 190° 190° 10 kt METAR LFQQ 260300Z AUTO 19010KT 9999 SCT038 BKN044 BKN054 11/08 Q1008 NOSIG
04:30
V
11 °C 10 km+ 4.600 ft 190° 190° 8 kt METAR LFQQ 260230Z AUTO 19008KT 9999 BKN046 BKN052 BKN068 11/09 Q1009 NOSIG
04:00
V
11 °C 10 km+ - 190° 190° 8 kt METAR LFQQ 260200Z AUTO 19008KT CAVOK 11/09 Q1009 NOSIG
03:30
V
11 °C 10 km+ - 190° 190° 7 kt METAR LFQQ 260130Z AUTO 19007KT 9999 -RA NSC 11/09 Q1010 NOSIG
03:00
V
11 °C 10 km+ 10.000 ft 200° 200° 7 kt METAR LFQQ 260100Z AUTO 20007KT 9999 FEW046 SCT058 OVC100 11/09 Q1010 NOSIG
02:30
V
11 °C 10 km+ 4.600 ft 220° 220° 7 kt METAR LFQQ 260030Z AUTO 22007KT 9999 BKN046 OVC058 11/09 Q1011 NOSIG
02:00
V
11 °C 10 km+ 5.800 ft 210° 210° 6 kt METAR LFQQ 260000Z AUTO 21006KT 9999 FEW047 BKN058 OVC120 11/09 Q1011 NOSIG
01:30
V
11 °C 10 km+ - 200° 200° 4 kt METAR LFQQ 252330Z AUTO 20004KT CAVOK 11/09 Q1012 NOSIG
01:00
V
11 °C 10 km+ 5.400 ft 220° 220° 4 kt METAR LFQQ 252300Z AUTO 22004KT 9999 SCT043 OVC054 11/09 Q1013 NOSIG
00:30
V
10 °C 10 km+ - 220° 220° 5 kt METAR LFQQ 252230Z AUTO 22005KT CAVOK 10/09 Q1013 NOSIG
00:00
V
10 °C 10 km+ - 240° 240° 4 kt METAR LFQQ 252200Z AUTO 24004KT CAVOK 10/09 Q1013 NOSIG

25 de septiembre de 2022

Hora Código Tiempo Temp. Visibilidad Cielo nuboso Viento METAR/SPECI
23:30
V
10 °C 10 km+ - 230° 230° 4 kt METAR LFQQ 252130Z AUTO 23004KT CAVOK 10/09 Q1013 NOSIG
23:00
V
11 °C 10 km+ - 220° 220° 5 kt METAR LFQQ 252100Z AUTO 22005KT CAVOK 11/10 Q1014 NOSIG
22:30
V
11 °C 10 km+ - 240° 240° 5 kt METAR LFQQ 252030Z AUTO 24005KT CAVOK 11/10 Q1014 NOSIG
22:00
V
12 °C 10 km+ - 230° 230° 4 kt METAR LFQQ 252000Z AUTO 23004KT CAVOK 12/11 Q1014 NOSIG
21:30
V
12 °C 10 km+ 6.000 ft 240° 240° 5 kt METAR LFQQ 251930Z AUTO 24005KT 9999 FEW048 OVC060 12/11 Q1014 NOSIG
21:00
V
12 °C 10 km+ 4.700 ft 280° 280° 5 kt METAR LFQQ 251900Z AUTO 28005KT 9999 BKN047 OVC060 12/10 Q1014 NOSIG
20:30
V
12 °C 10 km+ 6.200 ft 310° 310° 6 kt METAR LFQQ 251830Z AUTO 31006KT 9999 FEW043 BKN062 OVC076 12/10 Q1015 NOSIG
20:00
V
12 °C 10 km+ - 310° 310° 7 kt METAR LFQQ 251800Z AUTO 31007KT CAVOK 12/10 Q1015 NOSIG
19:30
V
13 °C 10 km+ - 290° 290° 9 kt METAR LFQQ 251730Z AUTO 29009KT CAVOK 13/10 Q1015 NOSIG
19:00
V
13 °C 10 km+ - 300° 300° 9 kt METAR LFQQ 251700Z AUTO 30009KT CAVOK 13/10 Q1015 NOSIG
18:30
V
14 °C 10 km+ - 290° 290° 10 kt METAR LFQQ 251630Z AUTO 29010KT CAVOK 14/11 Q1015 NOSIG
18:00
V
14 °C 10 km+ 6.400 ft 270° 270° 7 kt METAR LFQQ 251600Z AUTO 27007KT 9999 FEW024 OVC064 14/11 Q1015 TEMPO 4000 SHRA BKN025TCU
17:30
V
14 °C 10 km+ - 280° 280° 8 kt METAR LFQQ 251530Z AUTO 28008KT CAVOK 14/11 Q1015 TEMPO 4000 SHRA BKN025TCU
17:00
V
15 °C 10 km+ 7.400 ft 290° 290° 8 kt METAR LFQQ 251500Z AUTO 29008KT 9999 FEW026/// OVC074/// //////TCU 15/11 Q1015 TEMPO 4000 SHRA
Datos más antiguos

Nosotros y terceros seguimos tu comportamiento en Internet en nuestro sitio web con cookies. Si continúas, asumimos que estás de acuerdo con nuestra política de cookies. Más información